Time;durP1;ratioP1;P1;durP2;ratioP2;P2;SDS_P1;SDS_P2;PMS_P1;PMS_P2;Temp;Humidity;BMP_temperature;BMP_pressure;BME280_temperature;BME280_humidity;BME280_pressure;Samples;Min_cycle;Max_cycle;Signal;HPM_P1;HPM_P2
2023/04/05 06:34:45;;;;;;;1.65;1.55;;;;;;;3.96;45.74;99841.41;4449491;32;203802;-84
2023/04/05 06:37:14;;;;;;;1.70;1.60;;;;;;;3.96;45.74;99841.41;4446934;32;33011;-84
2023/04/05 06:39:43;;;;;;;1.95;1.85;;;;;;;3.53;46.14;99856.94;4443975;32;33735;-86
2023/04/05 06:42:11;;;;;;;1.75;1.65;;;;;;;3.66;46.11;99858.03;4435886;32;33561;-85
2023/04/05 06:44:42;;;;;;;1.53;1.43;;;;;;;3.52;45.93;99856.91;4438413;32;33425;-86
2023/04/05 06:47:11;;;;;;;1.67;1.58;;;;;;;3.70;45.92;99856.37;4433853;32;32593;-84
2023/04/05 06:49:39;;;;;;;1.70;1.60;;;;;;;4.07;45.02;99850.13;4438678;32;33502;-85
2023/04/05 06:52:10;;;;;;;1.80;1.65;;;;;;;4.12;44.25;99853.63;4440488;32;33739;-86
2023/04/05 06:54:39;;;;;;;1.37;1.30;;;;;;;3.89;44.47;99853.28;4440922;32;33002;-85
2023/04/05 06:57:07;;;;;;;1.60;1.50;;;;;;;3.99;44.35;99852.59;4446498;32;33816;-85
2023/04/05 06:59:40;;;;;;;1.20;1.20;;;;;;;4.06;44.59;99851.84;4435059;32;33514;-84
2023/04/05 07:02:09;;;;;;;1.67;1.58;;;;;;;4.35;43.58;99848.84;4425659;32;33494;-85
2023/04/05 07:04:40;;;;;;;1.60;1.50;;;;;;;4.28;43.12;99849.59;4425910;32;34027;-85
2023/04/05 07:07:10;;;;;;;1.62;1.52;;;;;;;4.69;41.40;99847.59;4424049;32;33814;-84
2023/04/05 07:09:39;;;;;;;2.28;1.58;;;;;;;4.57;41.59;99846.59;4440961;32;33625;-84
2023/04/05 07:12:08;;;;;;;1.33;1.30;;;;;;;4.79;40.54;99847.72;4440262;32;33729;-86
2023/04/05 07:14:37;;;;;;;1.20;1.20;;;;;;;4.64;38.38;99844.12;4442310;32;33563;-84
2023/04/05 07:17:07;;;;;;;1.20;1.20;;;;;;;4.70;38.00;99854.47;4429659;32;32990;-84
2023/04/05 07:19:35;;;;;;;1.87;1.77;;;;;;;4.52;37.33;99849.09;4447076;32;33647;-84
2023/04/05 07:22:04;;;;;;;1.42;1.33;;;;;;;4.76;37.86;99851.13;4441322;32;33748;-84
2023/04/05 07:24:34;;;;;;;1.17;1.17;;;;;;;4.66;37.19;99849.25;4425428;32;34160;-84
2023/04/05 07:27:03;;;;;;;1.73;1.62;;;;;;;5.16;36.92;99848.16;4426246;32;32228;-84
2023/04/05 07:29:33;;;;;;;1.27;1.25;;;;;;;5.41;35.97;99847.56;4425548;32;33098;-84
2023/04/05 07:32:03;;;;;;;1.10;1.10;;;;;;;5.59;36.27;99846.91;4430860;32;34492;-84
2023/04/05 07:34:31;;;;;;;1.05;1.05;;;;;;;5.82;35.20;99847.09;4418532;32;33307;-84
2023/04/05 07:37:01;;;;;;;1.40;1.30;;;;;;;5.61;37.01;99842.63;4415615;32;32627;-84
2023/04/05 07:39:30;;;;;;;1.45;1.35;;;;;;;5.37;37.34;99840.69;4415940;32;33957;-86
2023/04/05 07:42:00;;;;;;;1.27;1.23;;;;;;;6.13;36.29;99842.22;4420237;32;33969;-86
2023/04/05 07:44:29;;;;;;;1.50;1.40;;;;;;;5.97;36.34;99844.69;4413086;32;33072;-86
2023/04/05 07:46:58;;;;;;;1.15;1.15;;;;;;;5.88;35.90;99844.59;4415578;32;33362;-84
2023/04/05 07:49:28;;;;;;;1.27;1.20;;;;;;;6.24;34.38;99844.91;4415783;32;34382;-86
2023/04/05 07:51:57;;;;;;;1.50;1.40;;;;;;;5.67;34.55;99845.25;4416163;32;33629;-86
2023/04/05 07:54:26;;;;;;;1.10;1.10;;;;;;;6.13;34.78;99839.66;4418282;32;34065;-86
2023/04/05 07:56:56;;;;;;;1.37;1.30;;;;;;;6.12;35.43;99845.66;4415152;32;33607;-86
2023/04/05 07:59:27;;;;;;;1.50;1.40;;;;;;;5.66;36.61;99843.53;4408652;32;32985;-85
2023/04/05 08:01:56;;;;;;;1.20;1.20;;;;;;;5.86;37.20;99840.28;4414420;32;33735;-84
2023/04/05 08:04:40;;;;;;;1.10;1.10;;;;;;;5.61;36.71;99837.50;4417709;32;34392;-86
2023/04/05 08:07:09;;;;;;;1.30;1.30;;;;;;;5.25;36.61;99838.84;4417365;32;32894;-85
2023/04/05 08:09:37;;;;;;;1.10;1.10;;;;;;;5.99;36.18;99834.37;4415225;32;34619;-84
2023/04/05 08:12:07;;;;;;;1.20;1.20;;;;;;;5.71;37.30;99826.41;4412545;32;34357;-86
2023/04/05 08:14:37;;;;;;;1.15;1.15;;;;;;;5.81;35.56;99837.66;4416377;32;33748;-87
2023/04/05 08:17:06;;;;;;;1.50;1.40;;;;;;;5.61;36.89;99839.22;4421206;32;33214;-86
2023/04/05 08:19:34;;;;;;;1.23;1.20;;;;;;;5.44;36.75;99836.47;4416232;32;34139;-85
2023/04/05 08:22:03;;;;;;;1.23;1.23;;;;;;;5.81;36.01;99844.53;4415549;32;34446;-85
2023/04/05 08:24:32;;;;;;;1.42;1.33;;;;;;;5.82;36.83;99843.66;4405339;32;33212;-87
2023/04/05 08:27:01;;;;;;;1.10;1.10;;;;;;;5.72;36.43;99841.00;4418451;32;33398;-87
2023/04/05 08:29:29;;;;;;;1.60;1.50;;;;;;;5.90;36.68;99839.47;4403787;32;34719;-85
2023/04/05 08:32:00;;;;;;;1.48;1.37;;;;;;;5.94;36.90;99843.78;4405255;32;34092;-86
2023/04/05 08:34:31;;;;;;;2.40;1.73;;;;;;;5.74;36.56;99841.03;4415610;32;33774;-87
2023/04/05 08:37:00;;;;;;;;;;;;;;;5.71;37.85;99838.44;4416425;32;32695;-85
2023/04/05 08:39:28;;;;;;;4.03;1.75;;;;;;;5.70;38.01;99840.16;4421183;32;34159;-85
2023/04/05 08:42:02;;;;;;;1.40;1.33;;;;;;;5.84;38.26;99837.66;4415953;32;32040;-87
2023/04/05 08:44:31;;;;;;;1.37;1.27;;;;;;;5.72;37.61;99843.56;4415949;32;34046;-86
2023/04/05 08:47:01;;;;;;;1.17;1.17;;;;;;;5.74;37.91;99833.31;4414604;32;33381;-87
2023/04/05 08:49:30;;;;;;;1.10;1.10;;;;;;;6.00;38.09;99833.56;4420827;32;33213;-87
2023/04/05 08:52:00;;;;;;;1.20;1.20;;;;;;;6.32;37.05;99836.34;4415615;32;33574;-86
2023/04/05 08:54:29;;;;;;;1.58;1.48;;;;;;;6.54;36.57;99823.59;4415531;32;32829;-85
2023/04/05 08:57:00;;;;;;;1.50;1.40;;;;;;;6.86;37.64;99828.88;4415371;32;33333;-85
2023/04/05 08:59:31;;;;;;;1.20;1.20;;;;;;;7.25;35.89;99829.91;4414130;32;33342;-87
2023/04/05 09:01:59;;;;;;;;;;;;;;;7.35;35.21;99829.06;4405772;32;33675;-85
2023/04/05 09:04:32;;;;;;;1.10;1.10;;;;;;;7.55;34.40;99830.81;4414915;32;34576;-88
2023/04/05 09:07:02;;;;;;;1.50;1.40;;;;;;;6.91;34.93;99826.31;4419063;32;33320;-87
2023/04/05 09:09:33;;;;;;;3.22;1.40;;;;;;;7.14;34.36;99829.00;4417088;32;34372;-87
2023/04/05 09:12:29;;;;;;;1.17;1.15;;;;;;;7.15;34.05;99830.72;4417732;32;33637;-88
2023/04/05 09:15:00;;;;;;;1.23;1.20;;;;;;;7.09;34.88;99828.97;4410160;32;33205;-88
2023/04/05 09:17:31;;;;;;;1.10;1.10;;;;;;;7.13;34.97;99833.31;4397682;32;32875;-85
2023/04/05 09:20:01;;;;;;;1.40;1.30;;;;;;;7.19;34.92;99825.56;4410999;32;33100;-86
2023/04/05 09:22:36;;;;;;;1.30;1.20;;;;;;;7.32;34.34;99825.59;4410140;32;33708;-86
2023/04/05 09:25:05;;;;;;;1.15;1.15;;;;;;;7.31;34.15;99821.28;4404251;32;33735;-86
2023/04/05 09:27:34;;;;;;;1.17;1.15;;;;;;;7.17;34.59;99831.56;4404156;32;34539;-87
2023/04/05 09:30:21;;;;;;;1.65;1.55;;;;;;;7.15;33.92;99828.13;4401987;32;33285;-86
2023/04/05 09:32:53;;;;;;;1.33;1.23;;;;;;;7.11;34.81;99822.09;4409144;32;33244;-89
2023/04/05 09:35:25;;;;;;;1.10;1.10;;;;;;;7.29;34.24;99817.84;4413122;32;33233;-85
2023/04/05 09:37:55;;;;;;;1.80;1.35;;;;;;;7.33;34.17;99817.00;4418512;32;32893;-88
2023/04/05 09:40:40;;;;;;;3.53;1.70;;;;;;;7.34;35.12;99813.56;4410524;32;32979;-86
2023/04/05 09:43:10;;;;;;;1.30;1.20;;;;;;;7.00;35.00;99821.19;4404304;32;34364;-86
2023/04/05 09:45:41;;;;;;;1.12;1.12;;;;;;;6.96;35.43;99814.31;4398115;32;33524;-87
2023/04/05 09:48:11;;;;;;;1.40;1.30;;;;;;;7.03;35.24;99814.34;4398170;32;33053;-87
2023/04/05 09:50:41;;;;;;;1.20;1.20;;;;;;;7.18;34.45;99802.34;4410182;32;34327;-89
2023/04/05 09:53:14;;;;;;;1.62;1.52;;;;;;;7.56;34.94;99804.13;4412620;32;33730;-88
2023/04/05 09:55:44;;;;;;;1.42;1.33;;;;;;;7.44;34.16;99795.53;4399048;32;34119;-88
2023/04/05 09:58:13;;;;;;;1.10;1.10;;;;;;;7.45;34.28;99807.56;4397508;32;34479;-89
2023/04/05 10:00:51;;;;;;;1.10;1.10;;;;;;;7.60;34.81;99785.19;4398227;32;34015;-87
2023/04/05 10:03:30;;;;;;;1.60;1.50;;;;;;;7.83;35.25;99796.41;4402998;32;34469;-88
2023/04/05 10:06:01;;;;;;;1.10;1.10;;;;;;;7.81;35.27;99786.94;4397958;32;33948;-86
2023/04/05 10:08:30;;;;;;;1.15;1.15;;;;;;;8.08;33.50;99789.47;4399333;32;33879;-88
2023/04/05 10:10:59;;;;;;;1.15;1.10;;;;;;;8.22;33.56;99784.28;4412464;32;33447;-86
2023/04/05 10:13:28;;;;;;;1.42;1.33;;;;;;;8.21;32.15;99789.44;4411464;32;33031;-86
2023/04/05 10:15:59;;;;;;;1.80;1.70;;;;;;;7.51;33.38;99792.94;4401679;32;32758;-86
2023/04/05 10:18:30;;;;;;;1.33;1.25;;;;;;;7.37;34.28;99795.47;4396965;32;33021;-88
2023/04/05 10:21:01;;;;;;;1.50;1.40;;;;;;;7.56;34.03;99792.06;4410484;32;32971;-87
2023/04/05 10:23:33;;;;;;;1.10;1.10;;;;;;;7.95;34.50;99774.88;4412048;32;34351;-86
2023/04/05 10:26:17;;;;;;;1.37;1.30;;;;;;;7.48;34.28;99788.63;4414987;32;33822;-88
2023/04/05 10:28:50;;;;;;;1.10;1.10;;;;;;;7.65;33.74;99778.31;4407507;32;33087;-88
2023/04/05 10:31:26;;;;;;;1.23;1.12;;;;;;;7.85;33.76;99775.72;4403649;32;34203;-88
2023/04/05 10:34:06;;;;;;;1.55;1.45;;;;;;;8.09;33.98;99780.00;4410245;32;33988;-87
2023/04/05 10:36:45;;;;;;;1.60;1.50;;;;;;;7.57;33.29;99768.00;4412458;32;33549;-86
2023/04/05 10:39:19;;;;;;;1.17;1.17;;;;;;;7.87;33.70;99769.69;4406048;32;33396;-86
2023/04/05 10:41:48;;;;;;;1.92;1.75;;;;;;;8.02;33.16;99768.81;4402529;32;33120;-87
2023/04/05 10:44:17;;;;;;;2.58;1.20;;;;;;;7.96;33.29;99770.56;4408820;32;34525;-87
2023/04/05 10:46:56;;;;;;;1.05;1.02;;;;;;;8.02;32.71;99763.66;4411153;32;33449;-88
2023/04/05 10:49:33;;;;;;;1.30;1.20;;;;;;;8.09;33.41;99752.44;4405244;32;32630;-88
2023/04/05 10:52:03;;;;;;;1.12;1.08;;;;;;;8.63;32.58;99754.88;4405670;32;34140;-87
2023/04/05 10:54:35;;;;;;;2.00;1.80;;;;;;;8.92;32.42;99759.06;4413178;32;34426;-88
2023/04/05 10:57:06;;;;;;;1.15;1.08;;;;;;;8.79;31.58;99749.63;4403964;32;33523;-87
2023/04/05 10:59:41;;;;;;;1.00;1.00;;;;;;;8.66;31.29;99756.59;4409530;32;33778;-86
2023/04/05 11:02:10;;;;;;;1.85;1.70;;;;;;;8.28;31.55;99755.81;4408853;32;33936;-86
2023/04/05 11:04:42;;;;;;;1.30;1.20;;;;;;;8.23;31.80;99749.81;4408415;32;34726;-88
2023/04/05 11:07:13;;;;;;;0.98;0.98;;;;;;;8.40;31.72;99760.13;4408055;32;34275;-88
2023/04/05 11:09:54;;;;;;;1.85;1.75;;;;;;;8.87;30.72;99747.88;4403084;32;34502;-86
2023/04/05 11:12:59;;;;;;;2.72;1.92;;;;;;;8.68;31.73;99752.28;4411588;32;33573;-87
2023/04/05 11:15:31;;;;;;;1.25;1.15;;;;;;;8.56;31.64;99753.19;4412244;32;34347;-87
2023/04/05 11:18:08;;;;;;;1.20;1.20;;;;;;;8.69;31.72;99738.47;4411880;32;33542;-86
2023/04/05 11:20:42;;;;;;;1.00;1.00;;;;;;;8.69;31.76;99746.22;4415583;32;32690;-89
2023/04/05 11:23:15;;;;;;;1.12;1.10;;;;;;;8.68;31.51;99740.22;4411231;32;33555;-87
2023/04/05 11:25:50;;;;;;;1.00;1.00;;;;;;;9.07;30.04;99740.00;4402764;32;33336;-86
2023/04/05 11:28:24;;;;;;;0.90;0.90;;;;;;;8.63;30.28;99738.53;4402062;32;33498;-88
2023/04/05 11:30:58;;;;;;;1.45;1.35;;;;;;;8.76;31.15;99742.75;4404874;32;33408;-88
2023/04/05 11:33:37;;;;;;;1.00;1.00;;;;;;;8.86;30.78;99739.25;4415868;32;34304;-86
2023/04/05 11:36:07;;;;;;;2.35;2.15;;;;;;;8.42;31.49;99747.22;4416571;32;33747;-88
2023/04/05 11:38:37;;;;;;;4.53;1.73;;;;;;;8.27;32.82;99750.69;4411860;32;33309;-86
2023/04/05 11:41:07;;;;;;;0.90;0.90;;;;;;;8.75;30.91;99733.28;4413552;32;32087;-88
2023/04/05 11:43:38;;;;;;;0.98;0.95;;;;;;;9.01;30.53;99737.44;4414267;32;33770;-88
2023/04/05 11:46:07;;;;;;;1.45;1.35;;;;;;;8.79;30.29;99731.53;4418812;32;34432;-87
2023/04/05 11:48:36;;;;;;;1.30;1.20;;;;;;;8.88;30.96;99727.16;4414670;32;33660;-88
2023/04/05 11:51:08;;;;;;;1.48;1.37;;;;;;;8.71;31.90;99718.63;4415648;32;34157;-88
2023/04/05 11:53:39;;;;;;;2.30;2.12;;;;;;;8.67;29.99;99722.09;4415463;32;33866;-87
2023/04/05 11:56:11;;;;;;;1.98;1.85;;;;;;;8.79;30.72;99721.19;4420345;32;33682;-88
2023/04/05 11:58:42;;;;;;;1.00;1.00;;;;;;;9.03;30.03;99712.41;4420532;32;33218;-86
2023/04/05 12:01:11;;;;;;;1.20;1.02;;;;;;;8.81;30.65;99717.72;4416541;32;32854;-87
2023/04/05 12:03:40;;;;;;;0.95;0.95;;;;;;;9.21;29.87;99716.63;4418219;32;34218;-87
2023/04/05 12:06:09;;;;;;;3.58;1.62;;;;;;;9.58;29.40;99712.84;4415594;32;33691;-88
2023/04/05 12:08:40;;;;;;;1.15;1.15;;;;;;;9.77;29.27;99705.78;4419717;32;34498;-87
2023/04/05 12:11:11;;;;;;;1.27;1.17;;;;;;;10.02;29.11;99713.28;4416098;32;34101;-89
2023/04/05 12:13:39;;;;;;;1.15;1.10;;;;;;;10.17;28.58;99707.06;4415325;32;33459;-88
2023/04/05 12:16:09;;;;;;;1.25;1.15;;;;;;;10.58;28.13;99710.94;4410156;32;33869;-87
2023/04/05 12:18:38;;;;;;;1.25;1.20;;;;;;;10.22;28.14;99715.66;4421149;32;33972;-88
2023/04/05 12:21:09;;;;;;;1.12;1.00;;;;;;;9.79;28.36;99698.84;4415161;32;33342;-88
2023/04/05 12:23:40;;;;;;;1.00;1.00;;;;;;;9.54;29.75;99693.06;4414413;32;33616;-89
2023/04/05 12:26:08;;;;;;;1.00;1.00;;;;;;;9.96;29.00;99696.09;4414804;32;35267;-88
2023/04/05 12:28:50;;;;;;;1.40;1.25;;;;;;;10.38;28.52;99687.84;4406526;32;34043;-87
2023/04/05 12:31:40;;;;;;;1.35;1.20;;;;;;;10.11;27.69;99691.59;4418010;32;32966;-88
2023/04/05 12:34:09;;;;;;;1.42;1.33;;;;;;;10.20;28.80;99686.31;4417073;32;33890;-88
2023/04/05 12:36:39;;;;;;;0.90;0.90;;;;;;;10.29;26.48;99685.38;4413031;32;34501;-88
2023/04/05 12:39:10;;;;;;;0.80;0.80;;;;;;;10.21;25.51;99688.03;4412826;32;33723;-88
2023/04/05 12:41:39;;;;;;;1.17;1.08;;;;;;;10.32;27.30;99686.22;4409997;32;33029;-88
2023/04/05 12:44:12;;;;;;;1.23;1.10;;;;;;;10.35;27.09;99687.91;4413734;32;33287;-88
2023/04/05 12:46:41;;;;;;;0.90;0.90;;;;;;;9.93;28.55;99685.75;4407711;32;35347;-88
2023/04/05 12:49:14;;;;;;;1.40;1.30;;;;;;;10.32;28.06;99681.03;4413094;32;32365;-89
2023/04/05 12:51:44;;;;;;;1.35;1.25;;;;;;;10.50;27.60;99676.47;4410294;32;34050;-88
2023/04/05 12:54:15;;;;;;;0.85;0.85;;;;;;;10.93;27.01;99675.88;4415697;32;33859;-88
2023/04/05 12:56:44;;;;;;;1.00;0.90;;;;;;;11.00;26.88;99675.75;4418440;32;34081;-88
2023/04/05 12:59:13;;;;;;;1.02;0.93;;;;;;;10.83;26.26;99680.34;4412213;32;33691;-88
2023/04/05 13:01:42;;;;;;;1.45;0.98;;;;;;;11.29;26.18;99675.28;4406912;32;33622;-88
2023/04/05 13:04:11;;;;;;;1.37;1.23;;;;;;;11.55;26.67;99668.81;4414988;32;35331;-89
2023/04/05 13:06:45;;;;;;;1.30;0.90;;;;;;;11.53;25.61;99661.03;4416829;32;33712;-88
2023/04/05 13:09:16;;;;;;;1.20;1.10;;;;;;;11.68;25.48;99664.25;4413408;32;33073;-88
2023/04/05 13:11:45;;;;;;;1.45;1.35;;;;;;;11.50;25.71;99662.81;4413931;32;33250;-89
2023/04/05 13:14:14;;;;;;;1.05;0.90;;;;;;;11.75;26.14;99658.06;4414930;32;34579;-88
2023/04/05 13:16:43;;;;;;;1.95;1.00;;;;;;;11.68;25.03;99651.25;4411530;32;34057;-89
2023/04/05 13:19:12;;;;;;;0.80;0.80;;;;;;;11.80;25.71;99655.38;4418793;32;33535;-88
2023/04/05 13:21:41;;;;;;;1.23;1.12;;;;;;;11.85;26.49;99653.53;4410269;32;33827;-88
2023/04/05 13:24:10;;;;;;;1.37;1.20;;;;;;;12.46;25.79;99657.53;4412882;32;33449;-88
2023/04/05 13:26:42;;;;;;;0.80;0.80;;;;;;;12.33;24.71;99662.12;4413502;32;33496;-89
2023/04/05 13:29:10;;;;;;;0.70;0.70;;;;;;;12.55;24.93;99651.28;4416444;32;34476;-90
2023/04/05 13:31:40;;;;;;;1.45;1.02;;;;;;;12.69;24.68;99646.62;4413102;32;33692;-89
2023/04/05 13:34:09;;;;;;;0.90;0.90;;;;;;;12.64;26.65;99647.62;4408592;32;33918;-88
2023/04/05 13:36:38;;;;;;;0.80;0.80;;;;;;;12.62;23.72;99652.84;4410246;32;34387;-88
2023/04/05 13:39:06;;;;;;;1.10;1.00;;;;;;;12.04;23.99;99646.28;4417237;32;34113;-88
2023/04/05 13:41:36;;;;;;;1.30;1.10;;;;;;;12.79;24.18;99640.31;4416448;32;33793;-89
2023/04/05 13:44:06;;;;;;;1.10;1.00;;;;;;;12.74;24.07;99642.16;4413259;32;33537;-89
2023/04/05 13:46:35;;;;;;;1.27;0.80;;;;;;;12.67;24.06;99635.37;4410888;32;34790;-89
2023/04/05 13:49:04;;;;;;;1.58;1.48;;;;;;;12.81;23.37;99638.53;4414559;32;33528;-89
2023/04/05 13:51:34;;;;;;;0.82;0.82;;;;;;;12.85;24.04;99633.25;4417725;32;34039;-88
2023/04/05 13:54:03;;;;;;;0.80;0.80;;;;;;;11.92;24.20;99632.63;4409403;32;34482;-87
2023/04/05 13:56:32;;;;;;;0.98;0.98;;;;;;;11.76;24.69;99631.16;4414650;32;33893;-88
2023/04/05 13:59:00;;;;;;;0.90;0.90;;;;;;;11.94;24.69;99630.84;4408517;32;33570;-88
2023/04/05 14:01:31;;;;;;;0.80;0.80;;;;;;;12.18;24.72;99639.06;4418589;32;33186;-88
2023/04/05 14:04:00;;;;;;;1.50;0.90;;;;;;;12.18;24.33;99636.47;4415468;32;32937;-88
2023/04/05 14:06:33;;;;;;;1.50;1.08;;;;;;;11.94;24.02;99638.66;4414929;32;34843;-89
2023/04/05 14:09:02;;;;;;;1.30;1.15;;;;;;;12.14;23.66;99646.06;4414311;32;34417;-88
2023/04/05 14:11:31;;;;;;;0.70;0.70;;;;;;;12.29;23.95;99644.03;4414975;32;32912;-89
2023/04/05 14:14:00;;;;;;;1.12;1.08;;;;;;;12.54;23.34;99633.94;4397489;32;33909;-88
2023/04/05 14:16:31;;;;;;;1.25;0.90;;;;;;;12.20;23.21;99644.22;4397752;32;33133;-89
2023/04/05 14:18:59;;;;;;;0.90;0.90;;;;;;;12.07;23.33;99635.81;4402160;32;34471;-89
2023/04/05 14:21:28;;;;;;;0.65;0.65;;;;;;;12.09;23.56;99626.25;4413849;32;32977;-88
2023/04/05 14:23:57;;;;;;;3.33;1.35;;;;;;;11.66;23.67;99637.44;4419266;32;33421;-89
2023/04/05 14:26:27;;;;;;;0.80;0.80;;;;;;;11.90;23.64;99636.16;4413546;32;34318;-88
2023/04/05 14:28:55;;;;;;;1.17;1.00;;;;;;;12.08;23.40;99632.31;4413990;32;33330;-88
2023/04/05 14:31:25;;;;;;;1.15;0.80;;;;;;;11.92;23.41;99630.03;4413629;32;31867;-88
2023/04/05 14:33:55;;;;;;;0.62;0.62;;;;;;;12.46;23.66;99628.91;4414446;32;33629;-88
2023/04/05 14:36:25;;;;;;;1.67;1.00;;;;;;;12.82;23.04;99626.38;4419854;32;34322;-88
2023/04/05 14:38:54;;;;;;;0.80;0.80;;;;;;;12.96;21.42;99628.66;4414738;32;33512;-88
2023/04/05 14:41:23;;;;;;;1.83;1.73;;;;;;;12.52;22.07;99630.53;4413970;32;33657;-88
2023/04/05 14:43:52;;;;;;;0.70;0.70;;;;;;;12.57;21.85;99628.69;4418298;32;34170;-88
2023/04/05 14:46:21;;;;;;;0.70;0.70;;;;;;;12.81;22.33;99638.53;4417630;32;34420;-88
2023/04/05 14:48:50;;;;;;;1.10;1.10;;;;;;;13.11;22.04;99638.69;4415879;32;34203;-89
2023/04/05 14:51:23;;;;;;;0.70;0.70;;;;;;;12.76;22.67;99627.37;4414934;32;32853;-89
2023/04/05 14:53:51;;;;;;;1.10;1.00;;;;;;;12.51;21.28;99632.25;4415764;32;35251;-89
2023/04/05 14:56:20;;;;;;;1.92;1.83;;;;;;;12.12;22.02;99636.56;4417355;32;33585;-89
2023/04/05 14:58:49;;;;;;;0.70;0.70;;;;;;;12.46;21.96;99630.66;4419000;32;34184;-88
2023/04/05 15:01:18;;;;;;;0.80;0.80;;;;;;;11.97;21.72;99631.69;4416423;32;33285;-89
2023/04/05 15:03:49;;;;;;;0.80;0.80;;;;;;;11.78;22.33;99631.16;4416629;32;33389;-89
2023/04/05 15:06:21;;;;;;;0.93;0.93;;;;;;;11.56;23.11;99634.16;4416065;32;34697;-88
2023/04/05 15:08:50;;;;;;;0.77;0.75;;;;;;;11.28;22.70;99631.16;4420349;32;33318;-88
2023/04/05 15:11:20;;;;;;;1.02;0.93;;;;;;;11.14;23.13;99643.50;4414730;32;33015;-88
2023/04/05 15:13:49;;;;;;;1.10;1.00;;;;;;;11.17;22.80;99646.09;4416665;32;33614;-87
2023/04/05 15:16:18;;;;;;;0.80;0.80;;;;;;;11.09;22.97;99639.28;4412346;32;34275;-88
2023/04/05 15:18:49;;;;;;;0.70;0.70;;;;;;;11.14;22.13;99639.22;4420001;32;33796;-88
2023/04/05 15:21:19;;;;;;;0.70;0.70;;;;;;;11.03;22.25;99639.34;4420909;32;33185;-88
2023/04/05 15:23:49;;;;;;;0.80;0.80;;;;;;;10.96;22.65;99637.75;4414011;32;33110;-88
2023/04/05 15:26:17;;;;;;;0.80;0.80;;;;;;;10.73;22.84;99652.78;4415934;32;34390;-87
2023/04/05 15:28:46;;;;;;;0.90;0.90;;;;;;;10.54;23.25;99647.88;4412958;32;34317;-87
2023/04/05 15:31:16;;;;;;;0.90;0.90;;;;;;;10.45;22.97;99651.44;4419161;32;33042;-87
2023/04/05 15:33:45;;;;;;;2.60;2.10;;;;;;;10.71;22.14;99650.25;4411938;32;33923;-87
2023/04/05 15:36:14;;;;;;;1.00;1.00;;;;;;;10.09;22.85;99651.88;4401331;32;34525;-88
2023/04/05 15:38:42;;;;;;;1.45;1.35;;;;;;;9.95;23.17;99646.84;4411364;32;33656;-86
2023/04/05 15:41:17;;;;;;;1.30;1.20;;;;;;;10.25;23.44;99651.69;4416802;32;32901;-85
2023/04/05 15:43:46;;;;;;;1.20;1.10;;;;;;;10.19;22.79;99648.28;4407808;32;32194;-88
2023/04/05 15:46:15;;;;;;;1.00;1.00;;;;;;;10.15;23.47;99650.09;4414353;32;34548;-87
2023/04/05 15:48:44;;;;;;;0.80;0.80;;;;;;;10.07;23.06;99651.88;4415436;32;33890;-87
2023/04/05 15:51:12;;;;;;;0.80;0.80;;;;;;;10.13;23.20;99650.97;4415969;32;33764;-87
2023/04/05 15:53:41;;;;;;;1.00;1.00;;;;;;;10.32;22.49;99643.87;4419813;32;34516;-86
2023/04/05 15:56:10;;;;;;;2.67;1.37;;;;;;;10.09;22.81;99657.91;4414661;32;33677;-85
2023/04/05 15:58:40;;;;;;;0.90;0.90;;;;;;;9.83;23.01;99651.31;4414367;32;33662;-89
2023/04/05 16:01:09;;;;;;;1.02;1.02;;;;;;;9.80;22.92;99653.06;4415763;32;33052;-86
2023/04/05 16:03:38;;;;;;;0.80;0.80;;;;;;;9.94;22.58;99661.53;4421079;32;33996;-89
2023/04/05 16:06:07;;;;;;;0.80;0.80;;;;;;;10.12;23.13;99657.87;4415805;32;34791;-88
2023/04/05 16:08:36;;;;;;;1.30;1.20;;;;;;;10.38;22.28;99655.00;4415835;32;33885;-87
2023/04/05 16:11:07;;;;;;;1.30;1.20;;;;;;;10.18;23.03;99660.41;4416838;32;32891;-86
2023/04/05 16:13:36;;;;;;;0.90;0.90;;;;;;;10.65;22.52;99664.13;4415328;32;33961;-87
2023/04/05 16:16:06;;;;;;;0.93;0.93;;;;;;;10.67;21.50;99654.59;4420357;32;34214;-86
2023/04/05 16:18:35;;;;;;;0.90;0.90;;;;;;;10.48;22.55;99665.25;4416046;32;34047;-86
2023/04/05 16:21:04;;;;;;;1.48;1.37;;;;;;;10.32;22.79;99657.69;4415345;32;33458;-88
2023/04/05 16:23:34;;;;;;;1.05;0.95;;;;;;;10.24;23.47;99660.34;4415920;32;34819;-87
2023/04/05 16:26:03;;;;;;;2.25;1.30;;;;;;;10.41;23.40;99667.06;4420650;32;34018;-88
2023/04/05 16:28:32;;;;;;;1.15;1.05;;;;;;;10.31;24.01;99668.91;4415395;32;33824;-88
2023/04/05 16:31:01;;;;;;;0.93;0.93;;;;;;;10.06;23.54;99665.75;4415481;32;31868;-87
2023/04/05 16:33:31;;;;;;;0.85;0.85;;;;;;;10.14;24.04;99666.50;4412870;32;33903;-86
2023/04/05 16:36:02;;;;;;;1.00;1.00;;;;;;;10.14;23.70;99668.22;4417496;32;33370;-87
2023/04/05 16:38:31;;;;;;;1.20;1.10;;;;;;;10.11;24.63;99663.09;4419978;32;33896;-87
2023/04/05 16:41:00;;;;;;;1.45;1.35;;;;;;;10.12;24.87;99665.66;4415054;32;32757;-86
2023/04/05 16:43:30;;;;;;;0.90;0.90;;;;;;;10.15;24.03;99659.59;4415675;32;33535;-88
2023/04/05 16:45:58;;;;;;;0.95;0.95;;;;;;;10.01;24.67;99664.94;4415064;32;33978;-88
2023/04/05 16:48:29;;;;;;;1.40;1.23;;;;;;;10.16;24.62;99663.91;4420241;32;33534;-88
2023/04/05 16:50:59;;;;;;;2.05;1.25;;;;;;;10.19;24.33;99667.28;4401177;32;32000;-86
2023/04/05 16:53:28;;;;;;;1.00;0.95;;;;;;;10.20;24.77;99669.03;4412633;32;33402;-87
2023/04/05 16:55:57;;;;;;;1.23;1.12;;;;;;;10.06;25.15;99665.75;4415587;32;34470;-86
2023/04/05 16:58:26;;;;;;;0.80;0.80;;;;;;;9.61;25.60;99667.94;4419512;32;33384;-87
2023/04/05 17:00:57;;;;;;;1.00;1.00;;;;;;;9.70;25.81;99667.00;4415105;32;33017;-86
2023/04/05 17:03:26;;;;;;;1.58;1.35;;;;;;;9.54;26.25;99661.09;4412877;32;33794;-87
2023/04/05 17:05:55;;;;;;;1.00;1.00;;;;;;;9.79;25.82;99672.09;4402205;32;34616;-86
2023/04/05 17:08:25;;;;;;;0.82;0.80;;;;;;;10.18;25.58;99675.09;4398557;32;33485;-87
2023/04/05 17:10:54;;;;;;;1.00;1.00;;;;;;;10.05;25.51;99674.38;4404654;32;33823;-85
2023/04/05 17:13:23;;;;;;;0.80;0.80;;;;;;;9.99;25.33;99674.47;4411259;32;34432;-87
2023/04/05 17:15:52;;;;;;;1.10;1.00;;;;;;;9.81;25.50;99667.75;4414331;32;34445;-86
2023/04/05 17:18:21;;;;;;;2.40;1.65;;;;;;;10.00;26.19;99670.97;4413438;32;33386;-85
2023/04/05 17:20:49;;;;;;;1.05;0.98;;;;;;;9.95;27.57;99668.44;4419765;32;33409;-88
2023/04/05 17:23:18;;;;;;;1.12;0.90;;;;;;;9.75;29.47;99673.84;4414275;32;34245;-86
2023/04/05 17:25:48;;;;;;;0.80;0.80;;;;;;;9.65;29.74;99664.44;4414451;32;34502;-85
2023/04/05 17:28:17;;;;;;;0.70;0.70;;;;;;;9.73;31.00;99665.22;4414846;32;33447;-89
2023/04/05 17:30:46;;;;;;;1.00;0.95;;;;;;;9.58;31.43;99666.22;4414938;32;33798;-85
2023/04/05 17:33:15;;;;;;;1.45;1.35;;;;;;;9.54;31.47;99666.25;4418086;32;34515;-87
2023/04/05 17:35:44;;;;;;;0.70;0.70;;;;;;;9.46;31.89;99662.91;4404755;32;34102;-87
2023/04/05 17:38:12;;;;;;;0.80;0.80;;;;;;;9.43;31.77;99662.94;4413754;32;33239;-84
2023/04/05 17:40:41;;;;;;;1.73;1.17;;;;;;;9.28;32.20;99669.97;4415058;32;34150;-87
2023/04/05 17:43:12;;;;;;;1.62;1.35;;;;;;;9.17;32.34;99677.78;4420379;32;34408;-86
2023/04/05 17:45:41;;;;;;;1.37;1.23;;;;;;;9.04;32.52;99672.75;4414615;32;34248;-89
2023/04/05 17:48:10;;;;;;;1.10;1.08;;;;;;;8.80;33.43;99669.44;4414821;32;34481;-85
2023/04/05 17:50:39;;;;;;;3.08;1.10;;;;;;;8.76;33.07;99680.69;4414565;32;33681;-87
2023/04/05 17:53:10;;;;;;;1.40;1.12;;;;;;;8.63;32.93;99679.91;4417446;32;34139;-86
2023/04/05 17:55:40;;;;;;;1.90;1.60;;;;;;;8.59;33.69;99674.75;4419716;32;33616;-84
2023/04/05 17:58:08;;;;;;;1.30;1.20;;;;;;;8.43;34.32;99677.41;4414711;32;33355;-87
2023/04/05 18:00:49;;;;;;;;;;;;;;;;;;;;;
2023/04/05 18:03:31;;;;;;;1.45;1.37;;;;;;;8.09;34.10;99689.56;4396167;32;32162;-85
2023/04/05 18:06:00;;;;;;;1.00;1.00;;;;;;;8.10;34.03;99686.13;4415059;32;33435;-86
2023/04/05 18:08:30;;;;;;;1.33;1.10;;;;;;;8.03;34.59;99687.84;4417348;32;33696;-83
2023/04/05 18:10:59;;;;;;;1.40;1.30;;;;;;;7.74;34.92;99694.81;4411845;32;33228;-85
2023/04/05 18:13:28;;;;;;;1.60;1.50;;;;;;;7.83;34.59;99698.25;4411218;32;33336;-86
2023/04/05 18:15:59;;;;;;;2.60;1.70;;;;;;;7.82;35.32;99698.25;4411298;32;33433;-84
2023/04/05 18:18:28;;;;;;;1.42;1.33;;;;;;;7.80;34.82;99699.97;4415254;32;34274;-86
2023/04/05 18:21:00;;;;;;;1.20;1.15;;;;;;;7.60;34.73;99698.28;4409694;32;33634;-85
2023/04/05 18:23:29;;;;;;;1.45;1.27;;;;;;;7.48;35.66;99699.13;4410574;32;34224;-85
2023/04/05 18:25:58;;;;;;;0.98;0.98;;;;;;;7.41;35.47;99706.88;4410913;32;33502;-85
2023/04/05 18:28:27;;;;;;;1.45;1.35;;;;;;;7.56;34.04;99706.00;4417061;32;33514;-87